createdAt,value
2022-10-15T00:00:49.569Z,100235.19
2022-10-15T00:03:15.954Z,100242.13
2022-10-15T00:05:42.732Z,100246.44
2022-10-15T00:08:11.139Z,100248.13
2022-10-15T00:10:38.563Z,100241.06
2022-10-15T00:13:05.215Z,100223.38
2022-10-15T00:15:31.822Z,100210.28
2022-10-15T00:17:58.492Z,100198.44
2022-10-15T00:20:25.027Z,100189.88
2022-10-15T00:22:54.338Z,100206.63
2022-10-15T00:25:20.660Z,100204.00
2022-10-15T00:27:47.020Z,100214.84
2022-10-15T00:30:13.557Z,100172.84
2022-10-15T00:32:40.068Z,100171.16
2022-10-15T00:35:06.800Z,100162.75
2022-10-15T00:37:33.215Z,100191.50
2022-10-15T00:39:59.695Z,100187.69
2022-10-15T00:42:26.257Z,100175.69
2022-10-15T00:44:56.948Z,100224.53
2022-10-15T00:47:39.612Z,100208.22
2022-10-15T00:50:13.727Z,100204.53
2022-10-15T00:52:59.790Z,100209.06
2022-10-15T00:55:32.554Z,100204.13
2022-10-15T00:58:07.463Z,100162.66
2022-10-15T01:00:34.021Z,100207.81
2022-10-15T01:03:00.522Z,100214.16
2022-10-15T01:05:27.008Z,100174.22
2022-10-15T01:07:53.360Z,100124.44
2022-10-15T01:10:21.393Z,100226.78
2022-10-15T01:13:07.409Z,100234.44
2022-10-15T01:15:44.563Z,100179.59
2022-10-15T01:18:10.835Z,100226.16
2022-10-15T01:21:01.324Z,100226.47
2022-10-15T01:24:05.293Z,100223.84
2022-10-15T01:27:09.328Z,100221.31
2022-10-15T01:29:56.629Z,100234.47
2022-10-15T01:32:29.159Z,100218.53
2022-10-15T01:35:08.224Z,100208.53
2022-10-15T01:37:40.469Z,100243.09
2022-10-15T01:40:15.540Z,100231.91
2022-10-15T01:43:09.506Z,100242.03
2022-10-15T01:45:51.349Z,100193.88
2022-10-15T01:48:18.915Z,100226.66
2022-10-15T01:50:50.438Z,100237.72
2022-10-15T01:53:26.730Z,100192.97
2022-10-15T01:56:01.742Z,100224.22
2022-10-15T01:58:30.579Z,100160.34
2022-10-15T02:00:58.854Z,100219.72
2022-10-15T02:03:25.300Z,100216.25
2022-10-15T02:06:01.412Z,100193.50
2022-10-15T02:08:39.461Z,100189.91
2022-10-15T02:11:11.487Z,100145.28
2022-10-15T02:14:07.259Z,100206.34
2022-10-15T02:16:57.084Z,100198.56
2022-10-15T02:19:39.371Z,100181.19
2022-10-15T02:22:14.804Z,100168.63
2022-10-15T02:24:51.715Z,100216.13
2022-10-15T02:27:21.770Z,100210.03
2022-10-15T02:29:51.078Z,100173.16
2022-10-15T02:32:20.923Z,100221.28
2022-10-15T02:34:49.698Z,100195.06
2022-10-15T02:37:20.921Z,100174.44
2022-10-15T02:39:47.312Z,100197.16
2022-10-15T02:42:16.865Z,100204.03
2022-10-15T02:44:43.444Z,100232.13
2022-10-15T02:47:10.201Z,100194.31
2022-10-15T02:49:37.098Z,100157.38
2022-10-15T02:52:06.018Z,100195.19
2022-10-15T02:54:32.319Z,100225.09
2022-10-15T02:56:58.862Z,100176.34
2022-10-15T02:59:25.385Z,100190.75
2022-10-15T03:01:51.696Z,100170.09
2022-10-15T03:04:18.041Z,100145.09
2022-10-15T03:06:44.591Z,100174.56
2022-10-15T03:09:13.453Z,100191.59
2022-10-15T03:11:40.062Z,100169.50
2022-10-15T03:14:06.399Z,100165.19
2022-10-15T03:16:32.941Z,100154.88
2022-10-15T03:18:59.324Z,100191.91
2022-10-15T03:21:25.806Z,100198.34
2022-10-15T03:23:52.109Z,100186.13
2022-10-15T03:26:18.484Z,100183.59
2022-10-15T03:28:44.827Z,100192.44
2022-10-15T03:31:13.413Z,100190.75
2022-10-15T03:33:39.793Z,100181.38
2022-10-15T03:36:06.766Z,100188.97
2022-10-15T03:38:33.157Z,100188.84
2022-10-15T03:40:59.481Z,100183.72
2022-10-15T03:43:26.030Z,100070.97
2022-10-15T03:45:53.113Z,100043.41
2022-10-15T03:48:19.837Z,100152.63
2022-10-15T03:50:46.732Z,100146.13
2022-10-15T03:53:13.397Z,100148.75
2022-10-15T03:55:39.747Z,100106.13
2022-10-15T03:58:06.061Z,100177.81
2022-10-15T04:00:32.395Z,100167.56
2022-10-15T04:02:58.777Z,100180.34
2022-10-15T04:05:25.060Z,100185.06
2022-10-15T04:07:51.373Z,100197.72
2022-10-15T04:10:17.768Z,100196.88
2022-10-15T04:12:44.113Z,100196.88
2022-10-15T04:15:10.719Z,100202.97
2022-10-15T04:17:37.085Z,100207.28
2022-10-15T04:20:04.962Z,100169.59
2022-10-15T04:22:31.362Z,100183.81
2022-10-15T04:24:58.033Z,100195.69
2022-10-15T04:27:24.441Z,100200.25
2022-10-15T04:29:50.757Z,100206.44
2022-10-15T04:32:17.499Z,100170.78
2022-10-15T04:34:46.310Z,100206.44
2022-10-15T04:37:12.633Z,100182.78
2022-10-15T04:39:38.993Z,100205.72
2022-10-15T04:42:05.444Z,100197.06
2022-10-15T04:44:31.716Z,100175.81
2022-10-15T04:46:58.276Z,100185.91
2022-10-15T04:49:24.653Z,100177.59
2022-10-15T04:51:50.958Z,100167.91
2022-10-15T04:54:17.416Z,100151.06
2022-10-15T04:56:43.733Z,100119.06
2022-10-15T04:59:10.379Z,100172.53
2022-10-15T05:01:36.713Z,100110.53
2022-10-15T05:04:03.703Z,100167.19
2022-10-15T05:06:32.580Z,100028.44
2022-10-15T05:08:58.918Z,100178.53
2022-10-15T05:11:27.488Z,100189.91
2022-10-15T05:13:57.588Z,100197.72
2022-10-15T05:16:29.316Z,100193.09
2022-10-15T05:18:58.560Z,100205.28
2022-10-15T05:21:25.047Z,100201.63
2022-10-15T05:23:51.912Z,100176.00
2022-10-15T05:26:20.620Z,100195.19
2022-10-15T05:28:47.608Z,100190.03
2022-10-15T05:31:19.132Z,100197.09
2022-10-15T05:33:47.369Z,100142.13
2022-10-15T05:36:19.804Z,100203.69
2022-10-15T05:38:55.128Z,100140.34
2022-10-15T05:41:22.424Z,100196.53
2022-10-15T05:43:50.585Z,100195.69
2022-10-15T05:46:18.114Z,100161.06
2022-10-15T05:48:48.885Z,100193.81
2022-10-15T05:51:15.670Z,100120.66
2022-10-15T05:53:47.205Z,100154.03
2022-10-15T05:56:15.314Z,100192.22
2022-10-15T05:58:41.760Z,100171.47
2022-10-15T06:01:10.488Z,100190.53
2022-10-15T06:03:37.490Z,100201.81
2022-10-15T06:06:04.402Z,100131.25
2022-10-15T06:08:31.653Z,100194.63
2022-10-15T06:11:06.907Z,100116.31
2022-10-15T06:13:40.573Z,100001.31
2022-10-15T06:16:07.104Z,100140.44
2022-10-15T06:18:34.129Z,100188.78
2022-10-15T06:21:00.427Z,100215.41
2022-10-15T06:23:26.811Z,100213.91
2022-10-15T06:25:53.255Z,100214.78
2022-10-15T06:28:19.743Z,100208.53
2022-10-15T06:30:46.237Z,100221.13
2022-10-15T06:33:12.958Z,100231.81
2022-10-15T06:35:40.487Z,100128.53
2022-10-15T06:38:06.879Z,100210.66
2022-10-15T06:40:33.243Z,100194.97
2022-10-15T06:43:10.247Z,100213.13
2022-10-15T06:45:38.598Z,100201.03
2022-10-15T06:48:08.233Z,100185.56
2022-10-15T06:50:38.757Z,100217.56
2022-10-15T06:53:05.951Z,100185.25
2022-10-15T06:55:32.517Z,100238.25
2022-10-15T06:57:58.982Z,100132.75
2022-10-15T07:00:25.896Z,100236.91
2022-10-15T07:02:52.441Z,100237.09
2022-10-15T07:05:19.451Z,100228.56
2022-10-15T07:07:56.416Z,100219.50
2022-10-15T07:10:26.825Z,100227.41
2022-10-15T07:12:54.865Z,100226.34
2022-10-15T07:15:21.529Z,100225.28
2022-10-15T07:17:53.311Z,100226.84
2022-10-15T07:20:22.035Z,100206.50
2022-10-15T07:22:51.174Z,100189.84
2022-10-15T07:25:17.666Z,100187.28
2022-10-15T07:27:44.017Z,100217.78
2022-10-15T07:30:10.731Z,100168.81
2022-10-15T07:32:37.221Z,100219.28
2022-10-15T07:35:03.888Z,100175.09
2022-10-15T07:37:31.545Z,100172.84
2022-10-15T07:40:00.833Z,100193.66
2022-10-15T07:42:27.203Z,100045.47
2022-10-15T07:44:53.943Z,100207.91
2022-10-15T07:47:20.538Z,100173.66
2022-10-15T07:49:46.977Z,100207.13
2022-10-15T07:52:13.357Z,100115.66
2022-10-15T07:54:39.745Z,100175.78
2022-10-15T07:57:09.184Z,100198.13
2022-10-15T07:59:35.873Z,100187.47
2022-10-15T08:02:14.383Z,100121.28
2022-10-15T08:04:40.679Z,100181.72
2022-10-15T08:07:09.592Z,100197.44
2022-10-15T08:09:36.971Z,100179.75
2022-10-15T08:12:03.481Z,100184.38
2022-10-15T08:14:29.904Z,100196.78
2022-10-15T08:16:56.264Z,100202.25
2022-10-15T08:19:22.688Z,100177.63
2022-10-15T08:21:48.976Z,100170.00
2022-10-15T08:24:15.552Z,100180.22
2022-10-15T08:26:41.866Z,100147.06
2022-10-15T08:29:09.575Z,100133.75
2022-10-15T08:31:36.017Z,100056.31
2022-10-15T08:34:02.812Z,100191.75
2022-10-15T08:36:31.859Z,100192.22
2022-10-15T08:38:58.296Z,100165.72
2022-10-15T08:41:37.809Z,99966.63
2022-10-15T08:44:05.209Z,100185.72
2022-10-15T08:46:38.954Z,100173.22
2022-10-15T08:49:14.318Z,100189.31
2022-10-15T08:51:47.030Z,100178.50
2022-10-15T08:54:15.446Z,100176.19
2022-10-15T08:56:47.138Z,100150.88
2022-10-15T08:59:36.822Z,100176.63
2022-10-15T09:02:13.445Z,100172.41
2022-10-15T09:04:49.213Z,100175.22
2022-10-15T09:07:42.669Z,100099.50
2022-10-15T09:10:44.247Z,100176.84
2022-10-15T09:13:16.445Z,100106.84
2022-10-15T09:15:50.783Z,100161.19
2022-10-15T09:18:25.777Z,100094.94
2022-10-15T09:20:53.657Z,100112.09
2022-10-15T09:23:27.389Z,100155.25
2022-10-15T09:26:09.032Z,100155.69
2022-10-15T09:28:59.292Z,100154.09
2022-10-15T09:31:33.993Z,100062.38
2022-10-15T09:34:29.839Z,100157.59
2022-10-15T09:37:01.612Z,100076.81
2022-10-15T09:39:47.808Z,100115.34
2022-10-15T09:42:26.654Z,100117.78
2022-10-15T09:44:57.452Z,100157.50
2022-10-15T09:47:27.747Z,100142.59
2022-10-15T09:49:54.098Z,100088.44
2022-10-15T09:52:53.882Z,100087.75
2022-10-15T09:55:51.002Z,100137.19
2022-10-15T09:58:26.051Z,100081.78
2022-10-15T10:01:04.982Z,100136.38
2022-10-15T10:03:34.086Z,100137.19
2022-10-15T10:06:09.376Z,100143.47
2022-10-15T10:08:39.928Z,100137.31
2022-10-15T10:11:10.142Z,100132.16
2022-10-15T10:13:52.065Z,100041.47
2022-10-15T10:16:19.957Z,100126.88
2022-10-15T10:19:11.313Z,100124.38
2022-10-15T10:21:39.291Z,100119.22
2022-10-15T10:24:28.496Z,100087.53
2022-10-15T10:26:55.121Z,100073.56
2022-10-15T10:29:33.514Z,100062.84
2022-10-15T10:32:00.223Z,100079.16
2022-10-15T10:34:32.784Z,100117.84
2022-10-15T10:37:02.955Z,100037.28
2022-10-15T10:39:32.103Z,100121.75
2022-10-15T10:42:00.808Z,100114.91
2022-10-15T10:44:28.945Z,100118.53
2022-10-15T10:47:08.385Z,99881.53
2022-10-15T10:49:40.013Z,100112.53
2022-10-15T10:52:18.189Z,100119.53
2022-10-15T10:54:44.899Z,100120.38
2022-10-15T10:57:13.645Z,100114.91
2022-10-15T10:59:50.146Z,100032.25
2022-10-15T11:02:16.474Z,100072.59
2022-10-15T11:04:43.098Z,100087.94
2022-10-15T11:07:22.052Z,100090.75
2022-10-15T11:10:28.681Z,100050.28
2022-10-15T11:13:07.922Z,100111.97
2022-10-15T11:15:43.092Z,100111.72
2022-10-15T11:18:40.284Z,100042.44
2022-10-15T11:21:07.150Z,100111.84
2022-10-15T11:24:07.954Z,100095.78
2022-10-15T11:26:46.099Z,100098.00
2022-10-15T11:29:33.972Z,100095.22
2022-10-15T11:32:25.933Z,100093.84
2022-10-15T11:35:48.226Z,100070.91
2022-10-15T11:38:41.528Z,100089.91
2022-10-15T11:41:36.570Z,100078.03
2022-10-15T11:44:27.555Z,100086.72
2022-10-15T11:47:18.772Z,100088.91
2022-10-15T11:49:59.365Z,100086.53
2022-10-15T11:52:38.538Z,100098.41
2022-10-15T11:55:20.653Z,100087.06
2022-10-15T11:57:50.718Z,100081.31
2022-10-15T12:00:34.217Z,100037.09
2022-10-15T12:03:14.984Z,100044.44
2022-10-15T12:05:56.837Z,100077.16
2022-10-15T12:08:27.989Z,100031.63
2022-10-15T12:11:10.960Z,100013.97
2022-10-15T12:13:55.999Z,100064.09
2022-10-15T12:16:35.439Z,100067.25
2022-10-15T12:19:49.996Z,100042.97
2022-10-15T12:22:37.537Z,100063.41
2022-10-15T12:25:05.017Z,100059.28
2022-10-15T12:27:36.486Z,100063.91
2022-10-15T12:30:02.816Z,100067.59
2022-10-15T12:32:46.456Z,100037.31
2022-10-15T12:35:29.038Z,100036.72
2022-10-15T12:37:55.692Z,100019.91
2022-10-15T12:40:21.933Z,100055.88
2022-10-15T12:42:55.407Z,100060.59
2022-10-15T12:45:25.000Z,100024.88
2022-10-15T12:47:56.156Z,100059.53
2022-10-15T12:50:27.503Z,100072.38
2022-10-15T12:52:57.442Z,100027.13
2022-10-15T12:55:30.981Z,100037.78
2022-10-15T12:58:30.373Z,100078.09
2022-10-15T13:01:23.939Z,100079.28
2022-10-15T13:03:50.298Z,100073.66
2022-10-15T13:06:25.429Z,100063.09
2022-10-15T13:08:54.072Z,100068.41
2022-10-15T13:11:43.926Z,100062.25
2022-10-15T13:14:19.549Z,100060.22
2022-10-15T13:16:47.807Z,100065.75
2022-10-15T13:19:19.445Z,99999.31
2022-10-15T13:21:54.526Z,100003.34
2022-10-15T13:24:29.005Z,100050.00
2022-10-15T13:26:57.520Z,100050.81
2022-10-15T13:29:27.594Z,100042.88
2022-10-15T13:31:57.313Z,100023.41
2022-10-15T13:34:36.308Z,100049.50
2022-10-15T13:37:04.520Z,100047.88
2022-10-15T13:39:37.357Z,100048.00
2022-10-15T13:42:25.201Z,100059.19
2022-10-15T13:45:01.843Z,100045.56
2022-10-15T13:47:32.239Z,100053.28
2022-10-15T13:50:39.973Z,100048.06
2022-10-15T13:53:09.096Z,100044.91
2022-10-15T13:55:44.030Z,100018.66
2022-10-15T13:58:29.105Z,100059.91
2022-10-15T14:00:55.621Z,100056.16
2022-10-15T14:03:24.820Z,100057.66
2022-10-15T14:05:54.008Z,100047.00
2022-10-15T14:08:21.947Z,100047.56
2022-10-15T14:10:50.298Z,100047.38
2022-10-15T14:13:16.836Z,100058.78
2022-10-15T14:15:59.299Z,100048.44
2022-10-15T14:18:38.490Z,100067.75
2022-10-15T14:21:12.054Z,100065.06
2022-10-15T14:23:39.583Z,100051.59
2022-10-15T14:26:10.680Z,99989.75
2022-10-15T14:28:38.062Z,100049.69
2022-10-15T14:31:05.722Z,100048.97
2022-10-15T14:33:40.430Z,100060.97
2022-10-15T14:36:22.843Z,100072.22
2022-10-15T14:38:51.079Z,99880.19
2022-10-15T14:41:34.455Z,100073.06
2022-10-15T14:44:26.004Z,100082.19
2022-10-15T14:47:02.841Z,99980.53
2022-10-15T14:49:33.088Z,100062.03
2022-10-15T14:52:16.346Z,100078.50
2022-10-15T14:54:48.162Z,100087.06
2022-10-15T14:57:22.383Z,100097.00
2022-10-15T14:59:53.326Z,100102.50
2022-10-15T15:02:20.218Z,100102.44
2022-10-15T15:05:06.757Z,100124.44
2022-10-15T15:07:33.509Z,100125.41
2022-10-15T15:09:59.820Z,100110.28
2022-10-15T15:12:28.255Z,100058.38
2022-10-15T15:14:54.701Z,100144.94
2022-10-15T15:17:23.688Z,100129.44
2022-10-15T15:19:52.184Z,100160.03
2022-10-15T15:22:28.423Z,100152.63
2022-10-15T15:24:55.555Z,100105.63
2022-10-15T15:27:28.112Z,100155.66
2022-10-15T15:29:55.363Z,100161.25
2022-10-15T15:32:23.210Z,100130.91
2022-10-15T15:34:51.293Z,100103.59
2022-10-15T15:37:22.870Z,100177.13
2022-10-15T15:39:49.644Z,100180.88
2022-10-15T15:42:22.198Z,100168.56
2022-10-15T15:44:49.014Z,100184.63
2022-10-15T15:47:15.516Z,100162.56
2022-10-15T15:49:42.181Z,100198.13
2022-10-15T15:52:16.608Z,100192.94
2022-10-15T15:54:43.314Z,100132.59
2022-10-15T15:57:09.687Z,100186.06
2022-10-15T15:59:36.132Z,100206.19
2022-10-15T16:02:05.961Z,100228.47
2022-10-15T16:04:32.364Z,100174.16
2022-10-15T16:06:58.694Z,100174.22
2022-10-15T16:09:26.721Z,100229.63
2022-10-15T16:11:53.536Z,100189.41
2022-10-15T16:14:19.873Z,100225.91
2022-10-15T16:16:46.185Z,100173.41
2022-10-15T16:19:12.496Z,100123.09
2022-10-15T16:21:38.808Z,100226.94
2022-10-15T16:24:05.457Z,100224.69
2022-10-15T16:26:32.864Z,100218.94
2022-10-15T16:28:59.240Z,100235.41
2022-10-15T16:31:30.357Z,100164.28
2022-10-15T16:33:57.344Z,100189.66
2022-10-15T16:36:24.083Z,100249.78
2022-10-15T16:38:50.473Z,100240.84
2022-10-15T16:41:19.136Z,100210.53
2022-10-15T16:43:47.313Z,100143.19
2022-10-15T16:46:14.564Z,100209.19
2022-10-15T16:48:40.873Z,100252.69
2022-10-15T16:51:15.370Z,100219.75
2022-10-15T16:53:43.593Z,100269.03
2022-10-15T16:56:22.501Z,100283.94
2022-10-15T16:58:48.945Z,100239.88
2022-10-15T17:01:19.285Z,100304.41
2022-10-15T17:03:46.567Z,100266.22
2022-10-15T17:06:15.612Z,100302.75
2022-10-15T17:08:45.512Z,100293.13
2022-10-15T17:11:14.561Z,100311.41
2022-10-15T17:13:41.130Z,100320.44
2022-10-15T17:16:19.714Z,100320.88
2022-10-15T17:18:47.211Z,100285.22
2022-10-15T17:21:16.422Z,100289.78
2022-10-15T17:23:43.680Z,100336.03
2022-10-15T17:26:13.965Z,100359.72
2022-10-15T17:28:40.517Z,100367.78
2022-10-15T17:31:09.156Z,100312.97
2022-10-15T17:33:36.873Z,100382.09
2022-10-15T17:36:12.481Z,100339.66
2022-10-15T17:38:38.819Z,100384.25
2022-10-15T17:41:10.516Z,100335.91
2022-10-15T17:43:39.955Z,100373.91
2022-10-15T17:46:14.808Z,100407.56
2022-10-15T17:48:41.835Z,100317.47
2022-10-15T17:51:10.988Z,100371.34
2022-10-15T17:53:37.888Z,100390.41
2022-10-15T17:56:16.655Z,100382.09
2022-10-15T17:58:44.478Z,100399.03
2022-10-15T18:01:27.934Z,100369.69
2022-10-15T18:04:05.202Z,100415.63
2022-10-15T18:06:32.154Z,100367.44
2022-10-15T18:08:59.569Z,100433.84
2022-10-15T18:11:34.272Z,100436.22
2022-10-15T18:14:00.852Z,100370.91
2022-10-15T18:16:27.365Z,100389.41
2022-10-15T18:18:54.574Z,100422.63
2022-10-15T18:21:23.103Z,100430.03
2022-10-15T18:23:49.470Z,100405.72
2022-10-15T18:26:20.026Z,100380.50
2022-10-15T18:28:48.086Z,100411.19
2022-10-15T18:31:15.469Z,100429.66
2022-10-15T18:33:44.248Z,100395.59
2022-10-15T18:36:13.349Z,100441.16
2022-10-15T18:38:42.828Z,100433.47
2022-10-15T18:41:19.459Z,100435.47
2022-10-15T18:43:56.001Z,100440.00
2022-10-15T18:46:22.750Z,100439.47
2022-10-15T18:48:49.265Z,100436.44
2022-10-15T18:51:15.644Z,100435.66
2022-10-15T18:53:42.288Z,100402.00
2022-10-15T18:56:10.037Z,100448.56
2022-10-15T18:58:38.870Z,100426.63
2022-10-15T19:01:24.801Z,100346.66
2022-10-15T19:03:52.466Z,100374.91
2022-10-15T19:06:20.229Z,100365.22
2022-10-15T19:08:46.649Z,100418.22
2022-10-15T19:11:13.050Z,100477.44
2022-10-15T19:13:39.389Z,100396.50
2022-10-15T19:16:06.124Z,100365.59
2022-10-15T19:18:33.489Z,100472.81
2022-10-15T19:20:59.811Z,100456.28
2022-10-15T19:23:26.398Z,100492.19
2022-10-15T19:25:52.745Z,100489.56
2022-10-15T19:28:19.337Z,100479.56
2022-10-15T19:30:54.657Z,100490.75
2022-10-15T19:33:20.937Z,100495.31
2022-10-15T19:35:47.216Z,100488.44
2022-10-15T19:38:13.661Z,100442.75
2022-10-15T19:40:40.596Z,100400.13
2022-10-15T19:43:08.025Z,100487.91
2022-10-15T19:45:38.826Z,100489.78
2022-10-15T19:48:05.982Z,100448.22
2022-10-15T19:50:36.348Z,100457.56
2022-10-15T19:53:02.745Z,100494.22
2022-10-15T19:55:29.073Z,100498.75
2022-10-15T19:57:55.585Z,100503.09
2022-10-15T20:00:21.968Z,100431.31
2022-10-15T20:02:48.255Z,100491.81
2022-10-15T20:05:15.456Z,100495.28
2022-10-15T20:07:42.398Z,100433.19
2022-10-15T20:10:09.938Z,100519.91
2022-10-15T20:12:36.661Z,100503.47
2022-10-15T20:15:03.511Z,100511.50
2022-10-15T20:17:29.878Z,100479.97
2022-10-15T20:19:56.289Z,100486.16
2022-10-15T20:22:22.904Z,100521.06
2022-10-15T20:24:49.558Z,100510.19
2022-10-15T20:27:16.020Z,100527.41
2022-10-15T20:29:42.378Z,100478.22
2022-10-15T20:32:30.083Z,100501.25
2022-10-15T20:34:59.540Z,100525.41
2022-10-15T20:37:25.951Z,100485.47
2022-10-15T20:39:52.285Z,100548.38
2022-10-15T20:42:18.694Z,100551.09
2022-10-15T20:44:45.019Z,100565.03
2022-10-15T20:47:14.083Z,100511.78
2022-10-15T20:49:45.377Z,100480.72
2022-10-15T20:52:13.549Z,100567.84
2022-10-15T20:54:39.868Z,100565.50
2022-10-15T20:57:06.357Z,100531.16
2022-10-15T20:59:32.803Z,100567.50
2022-10-15T21:01:59.135Z,100576.06
2022-10-15T21:04:25.489Z,100577.84
2022-10-15T21:06:51.867Z,100534.94
2022-10-15T21:09:18.184Z,100578.78
2022-10-15T21:11:46.116Z,100581.53
2022-10-15T21:14:13.509Z,100585.84
2022-10-15T21:16:40.605Z,100581.72
2022-10-15T21:19:07.125Z,100486.03
2022-10-15T21:21:33.552Z,100558.44
2022-10-15T21:23:59.949Z,100571.00
2022-10-15T21:26:26.707Z,100451.75
2022-10-15T21:28:57.640Z,100586.06
2022-10-15T21:31:25.493Z,100593.09
2022-10-15T21:33:54.163Z,100580.03
2022-10-15T21:36:22.114Z,100588.97
2022-10-15T21:38:52.247Z,100585.53
2022-10-15T21:41:18.643Z,100499.31
2022-10-15T21:43:45.099Z,100563.91
2022-10-15T21:46:13.356Z,100578.28
2022-10-15T21:48:41.131Z,100581.78
2022-10-15T21:51:23.823Z,100552.09
2022-10-15T21:53:50.340Z,100596.81
2022-10-15T21:56:17.577Z,100569.28
2022-10-15T21:58:44.222Z,100610.91
2022-10-15T22:01:15.810Z,100613.53
2022-10-15T22:03:44.451Z,100609.13
2022-10-15T22:06:11.944Z,100612.69
2022-10-15T22:08:38.819Z,100517.16
2022-10-15T22:11:12.148Z,100606.38
2022-10-15T22:13:39.851Z,100470.53
2022-10-15T22:16:06.637Z,100581.31
2022-10-15T22:18:33.615Z,100520.88
2022-10-15T22:21:18.892Z,100548.91
2022-10-15T22:23:47.373Z,100604.03
2022-10-15T22:26:15.763Z,100562.88
2022-10-15T22:28:42.842Z,100538.47
2022-10-15T22:31:12.192Z,100535.00
2022-10-15T22:33:40.510Z,100600.38
2022-10-15T22:36:13.236Z,100597.84
2022-10-15T22:38:40.256Z,100604.88
2022-10-15T22:41:07.535Z,100605.56
2022-10-15T22:43:34.211Z,100514.34
2022-10-15T22:46:00.557Z,100603.47
2022-10-15T22:48:27.155Z,100563.66
2022-10-15T22:51:00.347Z,100618.53
2022-10-15T22:53:27.476Z,100567.69
2022-10-15T22:56:20.097Z,100622.13
2022-10-15T22:58:46.887Z,100581.63
2022-10-15T23:01:14.624Z,100626.72
2022-10-15T23:03:43.328Z,100612.63
2022-10-15T23:06:10.542Z,100616.28
2022-10-15T23:08:37.030Z,100621.16
2022-10-15T23:11:11.547Z,100626.53
2022-10-15T23:13:39.960Z,100601.91
2022-10-15T23:16:17.586Z,100578.31
2022-10-15T23:18:45.562Z,100622.28
2022-10-15T23:21:18.638Z,100576.16
2022-10-15T23:23:46.024Z,100624.84
2022-10-15T23:26:16.380Z,100587.72
2022-10-15T23:28:44.162Z,100637.69
2022-10-15T23:31:18.364Z,100627.38
2022-10-15T23:33:45.368Z,100560.66
2022-10-15T23:36:12.098Z,100568.84
2022-10-15T23:38:38.443Z,100573.25
2022-10-15T23:41:07.734Z,100617.41
2022-10-15T23:43:34.423Z,100552.75
2022-10-15T23:46:01.047Z,100569.28
2022-10-15T23:48:28.449Z,100612.34
2022-10-15T23:50:57.857Z,100568.72
2022-10-15T23:53:25.886Z,100602.47
2022-10-15T23:55:52.293Z,100641.94
2022-10-15T23:58:18.982Z,100628.97
